Herveld, Netherlands
Current Conditions -  °F | °C
As of 10:55 AM on Thursday 29 Jan 2015 (Local Time) from EHDL Reporting Station
Light Snow Light Snow  
Wind Chill: 23°   Ceiling: 700
Heat Index: 34°   Visibility: 4mi
Dew Point: 32°   Wind: 18mph
Humidity: 93%   Direction: 220°SW
Pressure: 29.12"   Gusts: NA
Location:  51.91°N, 5.75°E
Report Text: EHDL 290955Z AUTO 22016KT 6000 -RASN SCT006 BKN007 OVC008 01/00 Q0986 RERA REDZ YLO
Loading
Personal Weather Stations






























Interactive Weather Map New forecast layout! Learn more

10-Day Weather Forecast

Advertisements
Track Severe Weather on mobile